PWSweather.com
Personal Weather Stations
Station Observations
MADWEATHER
MadeiraPT

MadeiraPT

Lat: 32.735, Lon: -17.194

Elevation: 1063

Station Type: Davis VantagePro2

Latest ConditionsUpdated 10:20:03 AM GMT Saturday, May 30, 2015
Currently Today's Max Today's Min Today's Average
Temperature 62.5°F16.9°C 63.2°F17.3°C 57.1°F13.9°C 59.1°F15.1°C
Dew Point 58.3°F14.6°C 58.6°F14.8°C 54.5°F12.5°C 56.1°F13.4°C
Winds 6.6 mph S10.6 kmh S 6.6 mph S10.6 kmh S - 1.5 mph 2.4 kmh
Wind Gusts 10.0 mph16.1 kmh 10.0 mph16.1 kmh - -
Humidity 86% 93% 85% 90%
Pressure 30.16 in1021.3 mb 30.16 in1021.3 mb 30.09 in1019.0 mb -
Hour Temp Dew Point Humidity Winds Wind Gusts Pressure Precip Precip Rate Daily Precip Total
10:20 AM 62.5°F16.9°C 58.3°F14.6°C 86% 6.6 mph S10.6 kmh S 10.0 mph16.1 kmh 30.16 in1021.3 mb - 0.00 in0.0 mm 0.00 in0.0 mm
10:10 AM 62.8°F17.1°C 58.5°F14.7°C 86% 5.1 mph S8.2 kmh S 7.0 mph11.3 kmh 30.15 in1021.0 mb - 0.00 in0.0 mm 0.00 in0.0 mm
10:00 AM 62.5°F16.9°C 58.3°F14.6°C 86% 1.1 mph S1.8 kmh S 5.0 mph8.0 kmh 30.15 in1021.0 mb - 0.00 in0.0 mm 0.00 in0.0 mm
09:50 AM 62.7°F17.1°C 58.4°F14.7°C 86% 2.3 mph S3.7 kmh S 4.0 mph6.4 kmh 30.15 in1021.0 mb - 0.00 in0.0 mm 0.00 in0.0 mm
09:40 AM 62.7°F17.1°C 58.5°F14.7°C 86% 4.1 mph S6.6 kmh S 5.0 mph8.0 kmh 30.15 in1021.0 mb - 0.00 in0.0 mm 0.00 in0.0 mm
09:30 AM 62.8°F17.1°C 58.3°F14.6°C 85% 4.2 mph S6.8 kmh S 7.0 mph11.3 kmh 30.14 in1020.7 mb - 0.00 in0.0 mm 0.00 in0.0 mm
09:20 AM 63.2°F17.3°C 58.6°F14.8°C 85% 4.1 mph S6.6 kmh S 7.0 mph11.3 kmh 30.14 in1020.7 mb - 0.00 in0.0 mm 0.00 in0.0 mm
09:10 AM 62.8°F17.1°C 58.2°F14.6°C 85% 4.8 mph SW7.7 kmh SW 9.0 mph14.5 kmh 30.14 in1020.7 mb - 0.00 in0.0 mm 0.00 in0.0 mm
09:00 AM 62.5°F16.9°C 58.2°F14.6°C 86% 4.7 mph SW7.6 kmh SW 7.0 mph11.3 kmh 30.14 in1020.7 mb - 0.00 in0.0 mm 0.00 in0.0 mm
08:50 AM 62.3°F16.8°C 58.0°F14.4°C 86% 2.4 mph SW3.9 kmh SW 5.0 mph8.0 kmh 30.14 in1020.7 mb - 0.00 in0.0 mm 0.00 in0.0 mm
08:40 AM 61.9°F16.6°C 58.3°F14.6°C 88% 3.0 mph SW4.8 kmh SW 6.0 mph9.7 kmh 30.14 in1020.7 mb - 0.00 in0.0 mm 0.00 in0.0 mm
08:30 AM 61.5°F16.4°C 57.6°F14.2°C 87% 4.9 mph SW7.9 kmh SW 7.0 mph11.3 kmh 30.13 in1020.3 mb - 0.00 in0.0 mm 0.00 in0.0 mm
08:20 AM 61.5°F16.4°C 57.9°F14.4°C 88% 1.5 mph SW2.4 kmh SW 3.0 mph4.8 kmh 30.13 in1020.3 mb - 0.00 in0.0 mm 0.00 in0.0 mm
08:10 AM 61.3°F16.3°C 58.1°F14.5°C 89% 5.7 mph SW9.2 kmh SW 8.0 mph12.9 kmh 30.13 in1020.3 mb - 0.00 in0.0 mm 0.00 in0.0 mm
08:00 AM 60.9°F16.1°C 57.9°F14.4°C 90% 2.3 mph SW3.7 kmh SW 4.0 mph6.4 kmh 30.13 in1020.3 mb - 0.00 in0.0 mm 0.00 in0.0 mm
07:50 AM 60.2°F15.7°C 57.8°F14.3°C 92% 2.2 mph SW3.5 kmh SW 5.0 mph8.0 kmh 30.13 in1020.3 mb - 0.00 in0.0 mm 0.00 in0.0 mm
07:40 AM 59.4°F15.2°C 57.1°F13.9°C 92% 0.7 mph SW1.1 kmh SW 2.0 mph3.2 kmh 30.12 in1020.0 mb - 0.00 in0.0 mm 0.00 in0.0 mm
07:30 AM 59.0°F15.0°C 56.7°F13.7°C 92% Calm Calm 1.0 mph1.6 kmh 30.12 in1020.0 mb - 0.00 in0.0 mm 0.00 in0.0 mm
07:20 AM 58.7°F14.8°C 56.7°F13.7°C 93% Calm Calm -- 30.12 in1020.0 mb - 0.00 in0.0 mm 0.00 in0.0 mm
07:10 AM 58.4°F14.7°C 56.4°F13.6°C 93% Calm Calm -- 30.11 in1019.6 mb - 0.00 in0.0 mm 0.00 in0.0 mm
07:00 AM 58.1°F14.5°C 55.8°F13.2°C 92% Calm Calm -- 30.11 in1019.6 mb - 0.00 in0.0 mm 0.00 in0.0 mm
06:50 AM 57.9°F14.4°C 55.6°F13.1°C 92% Calm Calm -- 30.11 in1019.6 mb - 0.00 in0.0 mm 0.00 in0.0 mm
06:40 AM 57.8°F14.3°C 55.5°F13.1°C 92% Calm Calm -- 30.11 in1019.6 mb - 0.00 in0.0 mm 0.00 in0.0 mm
06:30 AM 57.6°F14.2°C 55.3°F12.9°C 92% 2.1 mph SW3.4 kmh SW 4.0 mph6.4 kmh 30.11 in1019.6 mb - 0.00 in0.0 mm 0.00 in0.0 mm
06:20 AM 57.7°F14.3°C 55.1°F12.8°C 91% 2.4 mph SW3.9 kmh SW 4.0 mph6.4 kmh 30.11 in1019.6 mb - 0.00 in0.0 mm 0.00 in0.0 mm
06:10 AM 58.1°F14.5°C 55.8°F13.2°C 92% Calm Calm -- 30.10 in1019.3 mb - 0.00 in0.0 mm 0.00 in0.0 mm
06:00 AM 58.3°F14.6°C 56.0°F13.3°C 92% Calm Calm -- 30.10 in1019.3 mb - 0.00 in0.0 mm 0.00 in0.0 mm
05:50 AM 58.2°F14.6°C 55.9°F13.3°C 92% Calm Calm -- 30.10 in1019.3 mb - 0.00 in0.0 mm 0.00 in0.0 mm
05:40 AM 58.1°F14.5°C 55.8°F13.2°C 92% Calm Calm -- 30.10 in1019.3 mb - 0.00 in0.0 mm 0.00 in0.0 mm
05:30 AM 58.0°F14.4°C 55.7°F13.2°C 92% Calm Calm -- 30.10 in1019.3 mb - 0.00 in0.0 mm 0.00 in0.0 mm
05:20 AM 58.0°F14.4°C 55.7°F13.2°C 92% 0.8 mph SW1.3 kmh SW 2.0 mph3.2 kmh 30.10 in1019.3 mb - 0.00 in0.0 mm 0.00 in0.0 mm
05:10 AM 58.2°F14.6°C 55.9°F13.3°C 92% 2.0 mph SW3.2 kmh SW 4.0 mph6.4 kmh 30.09 in1019.0 mb - 0.00 in0.0 mm 0.00 in0.0 mm
05:00 AM 58.2°F14.6°C 55.9°F13.3°C 92% 0.8 mph SW1.3 kmh SW 1.0 mph1.6 kmh 30.09 in1019.0 mb - 0.00 in0.0 mm 0.00 in0.0 mm
04:50 AM 58.0°F14.4°C 55.7°F13.2°C 92% 0.2 mph SW0.3 kmh SW -- 30.10 in1019.3 mb - 0.00 in0.0 mm 0.00 in0.0 mm
04:40 AM 57.7°F14.3°C 55.4°F13.0°C 92% 0.1 mph SW0.2 kmh SW 1.0 mph1.6 kmh 30.10 in1019.3 mb - 0.00 in0.0 mm 0.00 in0.0 mm
04:30 AM 57.5°F14.2°C 55.2°F12.9°C 92% 0.1 mph SW0.2 kmh SW -- 30.10 in1019.3 mb - 0.00 in0.0 mm 0.00 in0.0 mm
04:20 AM 57.3°F14.1°C 54.7°F12.6°C 91% 0.5 mph SW0.8 kmh SW 1.0 mph1.6 kmh 30.10 in1019.3 mb - 0.00 in0.0 mm 0.00 in0.0 mm
04:10 AM 57.1°F13.9°C 54.5°F12.5°C 91% 0.7 mph SW1.1 kmh SW 3.0 mph4.8 kmh 30.10 in1019.3 mb - 0.00 in0.0 mm 0.00 in0.0 mm
04:00 AM 57.2°F14.0°C 54.6°F12.6°C 91% 1.8 mph SW2.9 kmh SW 3.0 mph4.8 kmh 30.10 in1019.3 mb - 0.00 in0.0 mm 0.00 in0.0 mm
03:50 AM 57.5°F14.2°C 54.9°F12.7°C 91% 2.0 mph SW3.2 kmh SW 3.0 mph4.8 kmh 30.09 in1019.0 mb - 0.00 in0.0 mm 0.00 in0.0 mm
03:40 AM 57.7°F14.3°C 55.1°F12.8°C 91% 4.0 mph SW6.4 kmh SW 5.0 mph8.0 kmh 30.09 in1019.0 mb - 0.00 in0.0 mm 0.00 in0.0 mm
03:30 AM 57.9°F14.4°C 55.3°F12.9°C 91% 1.5 mph SW2.4 kmh SW 2.0 mph3.2 kmh 30.09 in1019.0 mb - 0.00 in0.0 mm 0.00 in0.0 mm
03:20 AM 58.0°F14.4°C 55.4°F13.0°C 91% Calm Calm -- 30.10 in1019.3 mb - 0.00 in0.0 mm 0.00 in0.0 mm
03:10 AM 58.0°F14.4°C 55.4°F13.0°C 91% Calm Calm -- 30.10 in1019.3 mb - 0.00 in0.0 mm 0.00 in0.0 mm
03:00 AM 58.0°F14.4°C 55.1°F12.8°C 90% Calm Calm -- 30.11 in1019.6 mb - 0.00 in0.0 mm 0.00 in0.0 mm
02:50 AM 57.9°F14.4°C 55.0°F12.8°C 90% Calm Calm -- 30.11 in1019.6 mb - 0.00 in0.0 mm 0.00 in0.0 mm
02:40 AM 57.8°F14.3°C 54.9°F12.7°C 90% Calm Calm -- 30.11 in1019.6 mb - 0.00 in0.0 mm 0.00 in0.0 mm
02:30 AM 58.0°F14.4°C 55.1°F12.8°C 90% Calm Calm -- 30.11 in1019.6 mb - 0.00 in0.0 mm 0.00 in0.0 mm
02:20 AM 58.0°F14.4°C 55.1°F12.8°C 90% Calm Calm -- 30.10 in1019.3 mb - 0.00 in0.0 mm 0.00 in0.0 mm
02:10 AM 57.9°F14.4°C 55.0°F12.8°C 90% Calm Calm -- 30.10 in1019.3 mb - 0.00 in0.0 mm 0.00 in0.0 mm
02:00 AM 57.9°F14.4°C 54.9°F12.7°C 90% Calm Calm -- 30.11 in1019.6 mb - 0.00 in0.0 mm 0.00 in0.0 mm
01:50 AM 57.9°F14.4°C 55.0°F12.8°C 90% 1.8 mph SW2.9 kmh SW 2.0 mph3.2 kmh 30.11 in1019.6 mb - 0.00 in0.0 mm 0.00 in0.0 mm
01:40 AM 57.9°F14.4°C 54.7°F12.6°C 89% 2.6 mph SW4.2 kmh SW 4.0 mph6.4 kmh 30.12 in1020.0 mb - 0.00 in0.0 mm 0.00 in0.0 mm
01:30 AM 58.1°F14.5°C 54.8°F12.7°C 89% 2.4 mph SW3.9 kmh SW 3.0 mph4.8 kmh 30.12 in1020.0 mb - 0.00 in0.0 mm 0.00 in0.0 mm
01:20 AM 58.1°F14.5°C 54.9°F12.7°C 89% 1.8 mph SW2.9 kmh SW 3.0 mph4.8 kmh 30.12 in1020.0 mb - 0.00 in0.0 mm 0.00 in0.0 mm
01:10 AM 58.2°F14.6°C 55.0°F12.8°C 89% 1.6 mph SW2.6 kmh SW 2.0 mph3.2 kmh 30.12 in1020.0 mb - 0.00 in0.0 mm 0.00 in0.0 mm
01:00 AM 58.3°F14.6°C 54.8°F12.7°C 88% 1.8 mph SW2.9 kmh SW 3.0 mph4.8 kmh 30.13 in1020.3 mb - 0.00 in0.0 mm 0.00 in0.0 mm
12:50 AM 58.6°F14.8°C 55.1°F12.8°C 88% 1.5 mph SW2.4 kmh SW 3.0 mph4.8 kmh 30.13 in1020.3 mb - 0.00 in0.0 mm 0.00 in0.0 mm
12:40 AM 58.8°F14.9°C 54.9°F12.7°C 87% 1.6 mph SW2.6 kmh SW 2.0 mph3.2 kmh 30.14 in1020.7 mb - 0.00 in0.0 mm 0.00 in0.0 mm
12:30 AM 59.1°F15.1°C 55.2°F12.9°C 87% 0.9 mph SW1.4 kmh SW 3.0 mph4.8 kmh 30.14 in1020.7 mb - 0.00 in0.0 mm 0.00 in0.0 mm
12:20 AM 59.3°F15.2°C 55.4°F13.0°C 87% Calm Calm -- 30.14 in1020.7 mb - 0.00 in0.0 mm 0.00 in0.0 mm
12:10 AM 59.4°F15.2°C 55.5°F13.1°C 87% 0.4 mph SW0.6 kmh SW 1.0 mph1.6 kmh 30.14 in1020.7 mb - 0.00 in0.0 mm 0.00 in0.0 mm
12:00 AM 59.5°F15.3°C 55.6°F13.1°C 87% Calm Calm 1.0 mph1.6 kmh 30.15 in1021.0 mb - 0.00 in0.0 mm 0.00 in0.0 mm